sensor_id;sensor_type;location;lat;lon;timestamp;pressure;altitude;pressure_sealevel;temperature;humidity
47873;BME280;73966;47.438;18.912;2024-03-29T00:01:29;99012.91;;;10.13;64.72
47873;BME280;73966;47.438;18.912;2024-03-29T00:03:56;99015.75;;;10.21;64.03
47873;BME280;73966;47.438;18.912;2024-03-29T00:06:23;99022.56;;;10.03;64.75
47873;BME280;73966;47.438;18.912;2024-03-29T00:08:51;99032.66;;;10.09;64.23
47873;BME280;73966;47.438;18.912;2024-03-29T00:11:19;99057.84;;;9.81;64.89
47873;BME280;73966;47.438;18.912;2024-03-29T00:13:46;99044.41;;;10.16;64.64
47873;BME280;73966;47.438;18.912;2024-03-29T00:16:13;99052.41;;;9.94;64.37
47873;BME280;73966;47.438;18.912;2024-03-29T00:18:40;99054.50;;;9.79;63.80
47873;BME280;73966;47.438;18.912;2024-03-29T00:21:07;99074.22;;;9.75;64.01
47873;BME280;73966;47.438;18.912;2024-03-29T00:23:34;99076.59;;;9.89;63.33
47873;BME280;73966;47.438;18.912;2024-03-29T00:26:01;99082.81;;;10.10;62.94
47873;BME280;73966;47.438;18.912;2024-03-29T00:28:30;99081.25;;;10.08;63.05
47873;BME280;73966;47.438;18.912;2024-03-29T00:30:57;99082.44;;;10.38;62.36
47873;BME280;73966;47.438;18.912;2024-03-29T00:33:24;99090.44;;;10.58;61.74
47873;BME280;73966;47.438;18.912;2024-03-29T00:35:51;99099.66;;;10.64;61.42
47873;BME280;73966;47.438;18.912;2024-03-29T00:38:17;99099.97;;;10.50;61.47
47873;BME280;73966;47.438;18.912;2024-03-29T00:40:45;99091.41;;;10.57;61.04
47873;BME280;73966;47.438;18.912;2024-03-29T00:43:12;99098.19;;;10.39;61.37
47873;BME280;73966;47.438;18.912;2024-03-29T00:45:40;99106.72;;;10.54;60.59
47873;BME280;73966;47.438;18.912;2024-03-29T00:48:10;99112.19;;;10.73;60.31
47873;BME280;73966;47.438;18.912;2024-03-29T00:50:38;99126.50;;;10.71;60.16
47873;BME280;73966;47.438;18.912;2024-03-29T00:53:05;99144.69;;;10.75;60.34
47873;BME280;73966;47.438;18.912;2024-03-29T00:55:32;99133.84;;;10.78;60.13
47873;BME280;73966;47.438;18.912;2024-03-29T00:57:59;99141.88;;;10.77;59.86
47873;BME280;73966;47.438;18.912;2024-03-29T01:00:26;99126.94;;;10.87;59.52
47873;BME280;73966;47.438;18.912;2024-03-29T01:02:55;99135.88;;;11.07;59.09
47873;BME280;73966;47.438;18.912;2024-03-29T01:05:22;99141.53;;;10.81;59.44
47873;BME280;73966;47.438;18.912;2024-03-29T01:07:49;99142.13;;;10.85;59.53
47873;BME280;73966;47.438;18.912;2024-03-29T01:10:22;99132.06;;;10.68;59.85
47873;BME280;73966;47.438;18.912;2024-03-29T01:12:49;99139.09;;;10.90;59.45
47873;BME280;73966;47.438;18.912;2024-03-29T01:15:17;99141.41;;;10.40;60.09
47873;BME280;73966;47.438;18.912;2024-03-29T01:17:44;99147.31;;;10.75;58.89
47873;BME280;73966;47.438;18.912;2024-03-29T01:20:14;99157.69;;;10.78;58.96
47873;BME280;73966;47.438;18.912;2024-03-29T01:25:20;99165.69;;;10.45;59.43
47873;BME280;73966;47.438;18.912;2024-03-29T01:27:48;99173.56;;;9.90;60.36
47873;BME280;73966;47.438;18.912;2024-03-29T01:30:15;99177.03;;;9.91;60.36
47873;BME280;73966;47.438;18.912;2024-03-29T01:32:46;99164.53;;;10.04;59.62
47873;BME280;73966;47.438;18.912;2024-03-29T01:35:15;99158.28;;;10.27;58.77
47873;BME280;73966;47.438;18.912;2024-03-29T01:37:42;99160.78;;;10.18;59.06
47873;BME280;73966;47.438;18.912;2024-03-29T01:40:13;99173.31;;;10.38;58.84
47873;BME280;73966;47.438;18.912;2024-03-29T01:45:14;99171.75;;;10.36;58.30
47873;BME280;73966;47.438;18.912;2024-03-29T01:47:43;99180.28;;;9.83;59.58
47873;BME280;73966;47.438;18.912;2024-03-29T01:50:09;99188.41;;;9.57;60.31
47873;BME280;73966;47.438;18.912;2024-03-29T01:52:39;99193.25;;;10.08;58.94
47873;BME280;73966;47.438;18.912;2024-03-29T01:55:14;99198.00;;;10.27;58.89
47873;BME280;73966;47.438;18.912;2024-03-29T01:57:42;99207.09;;;10.12;59.67
47873;BME280;73966;47.438;18.912;2024-03-29T02:00:15;99195.06;;;10.08;60.06
47873;BME280;73966;47.438;18.912;2024-03-29T02:02:47;99208.44;;;10.29;59.71
47873;BME280;73966;47.438;18.912;2024-03-29T02:05:15;99220.16;;;10.26;59.87
47873;BME280;73966;47.438;18.912;2024-03-29T02:07:45;99227.91;;;10.05;60.39
47873;BME280;73966;47.438;18.912;2024-03-29T02:10:14;99232.00;;;10.09;60.13
47873;BME280;73966;47.438;18.912;2024-03-29T02:15:18;99256.78;;;9.86;60.52
47873;BME280;73966;47.438;18.912;2024-03-29T02:17:46;99255.81;;;9.87;60.48
47873;BME280;73966;47.438;18.912;2024-03-29T02:20:14;99263.69;;;9.65;60.86
47873;BME280;73966;47.438;18.912;2024-03-29T02:22:53;99275.53;;;9.83;60.33
47873;BME280;73966;47.438;18.912;2024-03-29T02:25:23;99286.38;;;9.91;60.19
47873;BME280;73966;47.438;18.912;2024-03-29T02:27:52;99285.19;;;9.95;60.31
47873;BME280;73966;47.438;18.912;2024-03-29T02:30:29;99296.31;;;9.76;61.12
47873;BME280;73966;47.438;18.912;2024-03-29T02:33:03;99304.72;;;9.81;60.88
47873;BME280;73966;47.438;18.912;2024-03-29T02:35:30;99304.94;;;9.67;61.07
47873;BME280;73966;47.438;18.912;2024-03-29T02:38:02;99320.78;;;9.56;61.13
47873;BME280;73966;47.438;18.912;2024-03-29T02:40:31;99319.53;;;9.49;61.10
47873;BME280;73966;47.438;18.912;2024-03-29T02:43:00;99317.44;;;9.65;60.68
47873;BME280;73966;47.438;18.912;2024-03-29T02:45:28;99326.16;;;9.78;60.39
47873;BME280;73966;47.438;18.912;2024-03-29T02:50:31;99335.38;;;9.73;60.28
47873;BME280;73966;47.438;18.912;2024-03-29T02:52:58;99339.88;;;9.83;59.47
47873;BME280;73966;47.438;18.912;2024-03-29T02:55:26;99351.66;;;9.79;59.58
47873;BME280;73966;47.438;18.912;2024-03-29T02:57:54;99355.19;;;9.91;59.34
47873;BME280;73966;47.438;18.912;2024-03-29T03:00:30;99360.56;;;9.78;59.73
47873;BME280;73966;47.438;18.912;2024-03-29T03:02:57;99355.22;;;9.43;61.04
47873;BME280;73966;47.438;18.912;2024-03-29T03:05:25;99359.25;;;9.36;61.39
47873;BME280;73966;47.438;18.912;2024-03-29T03:07:52;99360.84;;;9.39;60.96
47873;BME280;73966;47.438;18.912;2024-03-29T03:10:44;99364.66;;;9.34;61.22
47873;BME280;73966;47.438;18.912;2024-03-29T03:13:28;99380.62;;;8.96;62.49
47873;BME280;73966;47.438;18.912;2024-03-29T03:15:57;99381.25;;;9.00;62.36
47873;BME280;73966;47.438;18.912;2024-03-29T03:18:24;99385.75;;;9.10;62.28
47873;BME280;73966;47.438;18.912;2024-03-29T03:20:51;99388.47;;;9.22;61.87
47873;BME280;73966;47.438;18.912;2024-03-29T03:23:19;99392.59;;;9.26;61.58
47873;BME280;73966;47.438;18.912;2024-03-29T03:25:52;99390.03;;;9.00;62.47
47873;BME280;73966;47.438;18.912;2024-03-29T03:28:22;99396.75;;;9.17;61.59
47873;BME280;73966;47.438;18.912;2024-03-29T03:30:51;99397.41;;;9.08;61.51
47873;BME280;73966;47.438;18.912;2024-03-29T03:33:19;99398.19;;;8.84;62.11
47873;BME280;73966;47.438;18.912;2024-03-29T03:35:47;99391.72;;;8.89;61.71
47873;BME280;73966;47.438;18.912;2024-03-29T03:38:15;99394.69;;;8.97;61.39
47873;BME280;73966;47.438;18.912;2024-03-29T03:40:42;99391.91;;;9.11;60.81
47873;BME280;73966;47.438;18.912;2024-03-29T03:43:10;99398.66;;;9.02;60.99
47873;BME280;73966;47.438;18.912;2024-03-29T03:45:37;99403.28;;;9.24;60.37
47873;BME280;73966;47.438;18.912;2024-03-29T03:48:07;99412.22;;;8.85;61.55
47873;BME280;73966;47.438;18.912;2024-03-29T03:50:35;99410.34;;;8.61;62.40
47873;BME280;73966;47.438;18.912;2024-03-29T03:53:03;99410.03;;;8.66;62.52
47873;BME280;73966;47.438;18.912;2024-03-29T03:55:30;99405.25;;;8.46;nan
47873;BME280;73966;47.438;18.912;2024-03-29T03:57:58;99407.69;;;8.61;62.24
47873;BME280;73966;47.438;18.912;2024-03-29T04:00:33;99415.09;;;8.44;62.13
47873;BME280;73966;47.438;18.912;2024-03-29T04:03:01;99415.41;;;8.52;61.71
47873;BME280;73966;47.438;18.912;2024-03-29T04:05:31;99416.75;;;8.32;61.97
47873;BME280;73966;47.438;18.912;2024-03-29T04:08:07;99423.72;;;8.33;62.08
47873;BME280;73966;47.438;18.912;2024-03-29T04:10:37;99435.22;;;8.32;61.79
47873;BME280;73966;47.438;18.912;2024-03-29T04:13:06;99439.03;;;8.28;61.89
47873;BME280;73966;47.438;18.912;2024-03-29T04:15:33;99443.22;;;8.18;61.99
47873;BME280;73966;47.438;18.912;2024-03-29T04:20:36;99443.44;;;8.27;61.50
47873;BME280;73966;47.438;18.912;2024-03-29T04:23:04;99455.25;;;8.22;61.39
47873;BME280;73966;47.438;18.912;2024-03-29T04:25:31;99457.75;;;8.10;61.89
47873;BME280;73966;47.438;18.912;2024-03-29T04:27:59;99464.81;;;8.10;62.08
47873;BME280;73966;47.438;18.912;2024-03-29T04:30:26;99463.47;;;7.63;63.98
47873;BME280;73966;47.438;18.912;2024-03-29T04:32:54;99481.22;;;7.47;64.63
47873;BME280;73966;47.438;18.912;2024-03-29T04:35:21;99481.75;;;7.66;64.27
47873;BME280;73966;47.438;18.912;2024-03-29T04:37:51;99487.06;;;7.79;63.61
47873;BME280;73966;47.438;18.912;2024-03-29T04:40:19;99478.31;;;7.78;63.44
47873;BME280;73966;47.438;18.912;2024-03-29T04:42:52;99492.16;;;7.82;63.30
47873;BME280;73966;47.438;18.912;2024-03-29T04:45:20;99493.50;;;8.02;62.69
47873;BME280;73966;47.438;18.912;2024-03-29T04:47:51;99494.59;;;7.85;63.11
47873;BME280;73966;47.438;18.912;2024-03-29T04:50:19;99499.78;;;7.86;63.22
47873;BME280;73966;47.438;18.912;2024-03-29T04:52:48;99500.53;;;7.88;62.99
47873;BME280;73966;47.438;18.912;2024-03-29T04:55:21;99504.56;;;7.94;62.79
47873;BME280;73966;47.438;18.912;2024-03-29T04:57:49;99510.50;;;7.98;62.56
47873;BME280;73966;47.438;18.912;2024-03-29T05:00:17;99516.16;;;7.92;62.83
47873;BME280;73966;47.438;18.912;2024-03-29T05:02:49;99506.25;;;7.95;62.85
47873;BME280;73966;47.438;18.912;2024-03-29T05:05:17;99517.25;;;8.02;62.82
47873;BME280;73966;47.438;18.912;2024-03-29T05:07:45;99522.31;;;7.78;63.63
47873;BME280;73966;47.438;18.912;2024-03-29T05:10:13;99528.13;;;7.83;63.49
47873;BME280;73966;47.438;18.912;2024-03-29T05:15:19;99542.03;;;7.99;63.29
47873;BME280;73966;47.438;18.912;2024-03-29T05:17:50;99538.47;;;8.00;63.39
47873;BME280;73966;47.438;18.912;2024-03-29T05:20:17;99526.50;;;8.22;62.88
47873;BME280;73966;47.438;18.912;2024-03-29T05:22:49;99531.78;;;7.95;63.79
47873;BME280;73966;47.438;18.912;2024-03-29T05:25:17;99531.47;;;8.26;62.95
47873;BME280;73966;47.438;18.912;2024-03-29T05:27:45;99534.63;;;8.19;63.56
47873;BME280;73966;47.438;18.912;2024-03-29T05:30:13;99534.13;;;8.26;63.50
47873;BME280;73966;47.438;18.912;2024-03-29T05:32:42;99532.12;;;8.30;63.58
47873;BME280;73966;47.438;18.912;2024-03-29T05:35:18;99540.69;;;8.48;63.16
47873;BME280;73966;47.438;18.912;2024-03-29T05:37:47;99543.84;;;8.53;63.23
47873;BME280;73966;47.438;18.912;2024-03-29T05:40:17;99552.72;;;8.52;63.38
47873;BME280;73966;47.438;18.912;2024-03-29T05:42:49;99559.63;;;8.67;63.12
47873;BME280;73966;47.438;18.912;2024-03-29T05:45:23;99558.75;;;8.67;63.28
47873;BME280;73966;47.438;18.912;2024-03-29T05:47:57;99559.97;;;8.88;62.82
47873;BME280;73966;47.438;18.912;2024-03-29T05:50:29;99561.66;;;8.76;63.42
47873;BME280;73966;47.438;18.912;2024-03-29T05:53:00;99568.44;;;8.93;63.07
47873;BME280;73966;47.438;18.912;2024-03-29T05:55:35;99569.19;;;9.08;63.16
47873;BME280;73966;47.438;18.912;2024-03-29T05:58:03;99579.50;;;8.85;64.14
47873;BME280;73966;47.438;18.912;2024-03-29T06:00:32;99570.69;;;9.12;63.89
47873;BME280;73966;47.438;18.912;2024-03-29T06:03:05;99572.34;;;9.26;63.65
47873;BME280;73966;47.438;18.912;2024-03-29T06:05:33;99577.97;;;9.47;63.38
47873;BME280;73966;47.438;18.912;2024-03-29T06:08:01;99576.16;;;9.22;64.50
47873;BME280;73966;47.438;18.912;2024-03-29T06:10:31;99580.94;;;9.29;64.40
47873;BME280;73966;47.438;18.912;2024-03-29T06:12:59;99589.94;;;9.27;65.32
47873;BME280;73966;47.438;18.912;2024-03-29T06:15:34;99587.38;;;9.51;66.03
47873;BME280;73966;47.438;18.912;2024-03-29T06:18:22;99588.81;;;10.17;64.09
47873;BME280;73966;47.438;18.912;2024-03-29T06:20:50;99593.16;;;10.55;62.19
47873;BME280;73966;47.438;18.912;2024-03-29T06:23:18;99589.94;;;10.63;62.39
47873;BME280;73966;47.438;18.912;2024-03-29T06:25:46;99584.94;;;11.17;60.47
47873;BME280;73966;47.438;18.912;2024-03-29T06:28:18;99580.00;;;10.77;61.45
47873;BME280;73966;47.438;18.912;2024-03-29T06:30:47;99587.03;;;10.90;61.26
47873;BME280;73966;47.438;18.912;2024-03-29T06:33:15;99606.06;;;11.41;60.13
47873;BME280;73966;47.438;18.912;2024-03-29T06:35:53;99603.13;;;11.22;59.67
47873;BME280;73966;47.438;18.912;2024-03-29T06:38:22;99604.72;;;11.47;59.85
47873;BME280;73966;47.438;18.912;2024-03-29T06:40:53;99603.78;;;11.81;58.53
47873;BME280;73966;47.438;18.912;2024-03-29T06:43:21;99603.34;;;12.42;55.90
47873;BME280;73966;47.438;18.912;2024-03-29T06:45:49;99601.09;;;12.26;56.59
47873;BME280;73966;47.438;18.912;2024-03-29T06:48:21;99604.13;;;12.11;57.52
47873;BME280;73966;47.438;18.912;2024-03-29T06:50:49;99595.06;;;12.68;55.99
47873;BME280;73966;47.438;18.912;2024-03-29T06:53:18;99579.34;;;12.65;56.45
47873;BME280;73966;47.438;18.912;2024-03-29T06:55:47;99581.13;;;12.43;55.72
47873;BME280;73966;47.438;18.912;2024-03-29T07:00:59;99589.00;;;13.19;54.57
47873;BME280;73966;47.438;18.912;2024-03-29T07:03:27;99600.88;;;12.62;54.88
47873;BME280;73966;47.438;18.912;2024-03-29T07:05:55;99597.37;;;12.82;55.85
47873;BME280;73966;47.438;18.912;2024-03-29T07:08:25;99610.41;;;13.38;53.87
47873;BME280;73966;47.438;18.912;2024-03-29T07:10:59;99614.25;;;13.76;53.23
47873;BME280;73966;47.438;18.912;2024-03-29T07:13:28;99623.62;;;13.70;53.34
47873;BME280;73966;47.438;18.912;2024-03-29T07:16:00;99619.81;;;13.63;52.42
47873;BME280;73966;47.438;18.912;2024-03-29T07:18:28;99612.81;;;13.62;53.13
47873;BME280;73966;47.438;18.912;2024-03-29T07:20:57;99621.78;;;13.40;53.86
47873;BME280;73966;47.438;18.912;2024-03-29T07:23:26;99628.81;;;14.12;51.77
47873;BME280;73966;47.438;18.912;2024-03-29T07:25:59;99621.97;;;14.69;51.04
47873;BME280;73966;47.438;18.912;2024-03-29T07:28:27;99620.09;;;15.38;47.60
47873;BME280;73966;47.438;18.912;2024-03-29T07:30:56;99629.16;;;15.64;47.71
47873;BME280;73966;47.438;18.912;2024-03-29T07:33:24;99636.56;;;14.65;49.61
47873;BME280;73966;47.438;18.912;2024-03-29T07:35:53;99622.81;;;15.09;48.18
47873;BME280;73966;47.438;18.912;2024-03-29T07:38:21;99619.97;;;15.00;49.27
47873;BME280;73966;47.438;18.912;2024-03-29T07:40:51;99616.97;;;15.42;48.40
47873;BME280;73966;47.438;18.912;2024-03-29T07:43:20;99611.16;;;15.76;47.40
47873;BME280;73966;47.438;18.912;2024-03-29T07:45:48;99615.53;;;15.58;46.86
47873;BME280;73966;47.438;18.912;2024-03-29T07:50:53;99620.41;;;15.82;46.67
47873;BME280;73966;47.438;18.912;2024-03-29T07:53:20;99621.81;;;14.61;49.00
47873;BME280;73966;47.438;18.912;2024-03-29T07:55:49;99623.41;;;15.69;46.40
47873;BME280;73966;47.438;18.912;2024-03-29T07:58:23;99619.00;;;15.21;47.12
47873;BME280;73966;47.438;18.912;2024-03-29T08:00:51;99626.97;;;14.53;48.44
47873;BME280;73966;47.438;18.912;2024-03-29T08:03:20;99627.44;;;14.78;48.14
47873;BME280;73966;47.438;18.912;2024-03-29T08:05:56;99612.28;;;14.88;48.06
47873;BME280;73966;47.438;18.912;2024-03-29T08:08:24;99625.03;;;15.23;47.71
47873;BME280;73966;47.438;18.912;2024-03-29T08:13:30;99632.59;;;15.37;48.22
47873;BME280;73966;47.438;18.912;2024-03-29T08:15:58;99634.16;;;15.30;47.25
47873;BME280;73966;47.438;18.912;2024-03-29T08:18:27;99623.50;;;15.11;47.04
47873;BME280;73966;47.438;18.912;2024-03-29T08:20:55;99640.59;;;14.60;48.02
47873;BME280;73966;47.438;18.912;2024-03-29T08:23:24;99637.53;;;14.64;48.02
47873;BME280;73966;47.438;18.912;2024-03-29T08:25:52;99626.63;;;14.77;47.67
47873;BME280;73966;47.438;18.912;2024-03-29T08:28:22;99620.47;;;15.72;45.36
47873;BME280;73966;47.438;18.912;2024-03-29T08:30:58;99615.53;;;16.05;45.66
47873;BME280;73966;47.438;18.912;2024-03-29T08:33:29;99617.50;;;16.93;43.74
47873;BME280;73966;47.438;18.912;2024-03-29T08:35:57;99613.75;;;16.86;43.61
47873;BME280;73966;47.438;18.912;2024-03-29T08:38:25;99604.87;;;16.86;43.46
47873;BME280;73966;47.438;18.912;2024-03-29T08:40:54;99601.44;;;16.93;44.01
47873;BME280;73966;47.438;18.912;2024-03-29T08:43:22;99603.88;;;17.49;41.70
47873;BME280;73966;47.438;18.912;2024-03-29T08:45:50;99602.88;;;16.70;41.88
47873;BME280;73966;47.438;18.912;2024-03-29T08:48:26;99596.09;;;17.37;40.63
47873;BME280;73966;47.438;18.912;2024-03-29T08:50:57;99586.28;;;16.66;43.16
47873;BME280;73966;47.438;18.912;2024-03-29T08:53:25;99604.56;;;16.71;43.02
47873;BME280;73966;47.438;18.912;2024-03-29T08:55:53;99607.88;;;16.37;42.60
47873;BME280;73966;47.438;18.912;2024-03-29T08:58:25;99615.69;;;16.76;43.03
47873;BME280;73966;47.438;18.912;2024-03-29T09:00:53;99603.53;;;17.26;42.40
47873;BME280;73966;47.438;18.912;2024-03-29T09:03:22;99604.16;;;17.72;41.20
47873;BME280;73966;47.438;18.912;2024-03-29T09:05:52;99604.19;;;17.02;41.79
47873;BME280;73966;47.438;18.912;2024-03-29T09:08:25;99595.41;;;16.91;42.48
47873;BME280;73966;47.438;18.912;2024-03-29T09:10:53;99592.75;;;17.35;42.98
47873;BME280;73966;47.438;18.912;2024-03-29T09:13:21;99589.41;;;17.41;42.41
47873;BME280;73966;47.438;18.912;2024-03-29T09:15:49;99587.09;;;17.73;41.95
47873;BME280;73966;47.438;18.912;2024-03-29T09:18:17;99579.50;;;17.60;41.97
47873;BME280;73966;47.438;18.912;2024-03-29T09:20:59;99575.91;;;16.81;42.53
47873;BME280;73966;47.438;18.912;2024-03-29T09:23:30;99583.41;;;16.95;42.49
47873;BME280;73966;47.438;18.912;2024-03-29T09:25:59;99594.00;;;16.69;42.67
47873;BME280;73966;47.438;18.912;2024-03-29T09:28:27;99610.09;;;16.24;42.87
47873;BME280;73966;47.438;18.912;2024-03-29T09:30:57;99605.00;;;16.66;42.52
47873;BME280;73966;47.438;18.912;2024-03-29T09:33:25;99591.84;;;16.37;43.26
47873;BME280;73966;47.438;18.912;2024-03-29T09:35:53;99586.69;;;16.08;43.85
47873;BME280;73966;47.438;18.912;2024-03-29T09:38:27;99593.75;;;16.45;43.04
47873;BME280;73966;47.438;18.912;2024-03-29T09:40:58;99582.78;;;17.54;42.28
47873;BME280;73966;47.438;18.912;2024-03-29T09:43:34;99578.00;;;17.65;41.87
47873;BME280;73966;47.438;18.912;2024-03-29T09:46:02;99575.66;;;17.62;42.45
47873;BME280;73966;47.438;18.912;2024-03-29T09:48:31;99577.81;;;17.59;42.32
47873;BME280;73966;47.438;18.912;2024-03-29T09:51:09;99581.47;;;17.84;41.63
47873;BME280;73966;47.438;18.912;2024-03-29T09:53:42;99571.12;;;17.63;39.86
47873;BME280;73966;47.438;18.912;2024-03-29T09:56:10;99568.63;;;17.35;42.49
47873;BME280;73966;47.438;18.912;2024-03-29T09:58:38;99569.50;;;17.18;41.98
47873;BME280;73966;47.438;18.912;2024-03-29T10:01:06;99579.81;;;17.31;42.19
47873;BME280;73966;47.438;18.912;2024-03-29T10:03:44;99581.91;;;16.30;43.83
47873;BME280;73966;47.438;18.912;2024-03-29T10:06:16;99564.44;;;16.35;44.47
47873;BME280;73966;47.438;18.912;2024-03-29T10:08:47;99567.19;;;16.43;44.42
47873;BME280;73966;47.438;18.912;2024-03-29T10:11:15;99559.41;;;16.68;44.96
47873;BME280;73966;47.438;18.912;2024-03-29T10:13:45;99563.84;;;16.95;44.40
47873;BME280;73966;47.438;18.912;2024-03-29T10:16:13;99546.16;;;16.66;44.94
47873;BME280;73966;47.438;18.912;2024-03-29T10:18:48;99561.03;;;17.23;45.41
47873;BME280;73966;47.438;18.912;2024-03-29T10:21:16;99547.03;;;17.37;44.28
47873;BME280;73966;47.438;18.912;2024-03-29T10:23:44;99555.88;;;17.55;43.61
47873;BME280;73966;47.438;18.912;2024-03-29T10:26:16;99541.41;;;17.48;43.96
47873;BME280;73966;47.438;18.912;2024-03-29T10:28:47;99543.16;;;17.65;44.06
47873;BME280;73966;47.438;18.912;2024-03-29T10:31:16;99541.72;;;17.71;44.40
47873;BME280;73966;47.438;18.912;2024-03-29T10:33:49;99544.31;;;17.55;45.25
47873;BME280;73966;47.438;18.912;2024-03-29T10:36:19;99543.13;;;17.83;44.14
47873;BME280;73966;47.438;18.912;2024-03-29T10:38:47;99533.22;;;18.34;43.06
47873;BME280;73966;47.438;18.912;2024-03-29T10:41:16;99532.38;;;17.75;44.99
47873;BME280;73966;47.438;18.912;2024-03-29T10:43:48;99530.28;;;17.69;45.49
47873;BME280;73966;47.438;18.912;2024-03-29T10:46:20;99527.97;;;17.40;45.47
47873;BME280;73966;47.438;18.912;2024-03-29T10:48:50;99504.78;;;17.91;45.41
47873;BME280;73966;47.438;18.912;2024-03-29T10:51:22;99508.44;;;17.48;46.10
47873;BME280;73966;47.438;18.912;2024-03-29T10:53:50;99514.75;;;18.15;44.98
47873;BME280;73966;47.438;18.912;2024-03-29T10:56:20;99516.66;;;17.80;45.26
47873;BME280;73966;47.438;18.912;2024-03-29T10:58:50;99503.44;;;17.87;45.68
47873;BME280;73966;47.438;18.912;2024-03-29T11:01:22;99490.81;;;18.62;44.96
47873;BME280;73966;47.438;18.912;2024-03-29T11:06:30;99465.47;;;18.49;45.21
47873;BME280;73966;47.438;18.912;2024-03-29T11:09:04;99458.44;;;18.88;43.89
47873;BME280;73966;47.438;18.912;2024-03-29T11:11:39;99450.41;;;18.39;44.75
47873;BME280;73966;47.438;18.912;2024-03-29T11:14:21;99460.13;;;18.40;45.57
47873;BME280;73966;47.438;18.912;2024-03-29T11:16:51;99447.38;;;18.67;45.41
47873;BME280;73966;47.438;18.912;2024-03-29T11:19:23;99447.38;;;18.59;44.72
47873;BME280;73966;47.438;18.912;2024-03-29T11:21:52;99436.59;;;19.08;43.55
47873;BME280;73966;47.438;18.912;2024-03-29T11:24:21;99434.97;;;19.38;43.50
47873;BME280;73966;47.438;18.912;2024-03-29T11:26:52;99425.56;;;20.50;42.06
47873;BME280;73966;47.438;18.912;2024-03-29T11:29:20;99430.19;;;20.94;41.36
47873;BME280;73966;47.438;18.912;2024-03-29T11:31:56;99426.72;;;20.56;41.84
47873;BME280;73966;47.438;18.912;2024-03-29T11:34:25;99424.16;;;20.17;42.46
47873;BME280;73966;47.438;18.912;2024-03-29T11:36:53;99421.75;;;20.22;42.87
47873;BME280;73966;47.438;18.912;2024-03-29T11:39:20;99424.22;;;20.31;42.76
47873;BME280;73966;47.438;18.912;2024-03-29T11:41:48;99417.06;;;19.70;43.04
47873;BME280;73966;47.438;18.912;2024-03-29T11:46:53;99420.22;;;19.73;43.73
47873;BME280;73966;47.438;18.912;2024-03-29T11:49:25;99405.03;;;20.72;42.88
47873;BME280;73966;47.438;18.912;2024-03-29T11:52:01;99402.72;;;20.23;43.23
47873;BME280;73966;47.438;18.912;2024-03-29T11:54:36;99400.28;;;20.59;42.49
47873;BME280;73966;47.438;18.912;2024-03-29T11:57:04;99411.81;;;20.22;42.92
47873;BME280;73966;47.438;18.912;2024-03-29T11:59:32;99406.13;;;19.71;44.43
47873;BME280;73966;47.438;18.912;2024-03-29T12:02:01;99405.91;;;19.02;45.78
47873;BME280;73966;47.438;18.912;2024-03-29T12:04:30;99405.97;;;19.33;45.24
47873;BME280;73966;47.438;18.912;2024-03-29T12:06:58;99400.25;;;19.68;44.78
47873;BME280;73966;47.438;18.912;2024-03-29T12:09:26;99402.34;;;19.10;45.61
47873;BME280;73966;47.438;18.912;2024-03-29T12:11:54;99395.00;;;18.96;46.42
47873;BME280;73966;47.438;18.912;2024-03-29T12:14:26;99388.03;;;19.57;45.25
47873;BME280;73966;47.438;18.912;2024-03-29T12:16:56;99390.78;;;20.03;44.11
47873;BME280;73966;47.438;18.912;2024-03-29T12:19:25;99391.37;;;19.59;45.30
47873;BME280;73966;47.438;18.912;2024-03-29T12:21:54;99391.91;;;19.54;45.51
47873;BME280;73966;47.438;18.912;2024-03-29T12:24:23;99392.06;;;19.61;44.79
47873;BME280;73966;47.438;18.912;2024-03-29T12:26:51;99383.97;;;19.30;45.52
47873;BME280;73966;47.438;18.912;2024-03-29T12:29:19;99370.28;;;20.02;44.50
47873;BME280;73966;47.438;18.912;2024-03-29T12:31:55;99381.75;;;20.19;44.06
47873;BME280;73966;47.438;18.912;2024-03-29T12:34:24;99378.44;;;19.94;44.35
47873;BME280;73966;47.438;18.912;2024-03-29T12:36:53;99377.03;;;19.75;44.86
47873;BME280;73966;47.438;18.912;2024-03-29T12:39:21;99372.69;;;19.74;44.77
47873;BME280;73966;47.438;18.912;2024-03-29T12:41:52;99370.50;;;20.00;44.92
47873;BME280;73966;47.438;18.912;2024-03-29T12:44:26;99372.22;;;20.16;44.46
47873;BME280;73966;47.438;18.912;2024-03-29T12:46:53;99362.25;;;20.39;44.39
47873;BME280;73966;47.438;18.912;2024-03-29T12:49:24;99367.25;;;20.43;43.98
47873;BME280;73966;47.438;18.912;2024-03-29T12:51:56;99364.78;;;20.18;44.68
47873;BME280;73966;47.438;18.912;2024-03-29T12:54:24;99367.59;;;20.02;45.41
47873;BME280;73966;47.438;18.912;2024-03-29T12:56:53;99371.91;;;20.11;45.08
47873;BME280;73966;47.438;18.912;2024-03-29T12:59:22;99374.41;;;19.58;46.40
47873;BME280;73966;47.438;18.912;2024-03-29T13:01:50;99369.47;;;20.01;45.81
47873;BME280;73966;47.438;18.912;2024-03-29T13:04:22;99366.41;;;20.04;45.04
47873;BME280;73966;47.438;18.912;2024-03-29T13:06:50;99359.13;;;19.90;45.24
47873;BME280;73966;47.438;18.912;2024-03-29T13:09:19;99365.75;;;19.79;45.38
47873;BME280;73966;47.438;18.912;2024-03-29T13:11:47;99353.41;;;19.93;45.38
47873;BME280;73966;47.438;18.912;2024-03-29T13:14:15;99349.31;;;20.20;44.91
47873;BME280;73966;47.438;18.912;2024-03-29T13:16:43;99357.75;;;20.17;44.59
47873;BME280;73966;47.438;18.912;2024-03-29T13:19:12;99351.31;;;19.80;45.75
47873;BME280;73966;47.438;18.912;2024-03-29T13:21:39;99351.44;;;19.64;46.17
47873;BME280;73966;47.438;18.912;2024-03-29T13:24:07;99343.16;;;19.65;46.11
47873;BME280;73966;47.438;18.912;2024-03-29T13:26:37;99329.53;;;20.13;45.40
47873;BME280;73966;47.438;18.912;2024-03-29T13:29:06;99333.59;;;20.09;45.69
47873;BME280;73966;47.438;18.912;2024-03-29T13:31:34;99336.72;;;19.98;46.29
47873;BME280;73966;47.438;18.912;2024-03-29T13:34:02;99341.84;;;20.07;46.09